New Leipzig, North Dakota
Current Conditions -  °F | °C
As of 5:55 PM on Wednesday 17 Dec 2014 (Local Time) from KD57 Reporting Station
Light Snow Light Snow  
Wind Chill:   Ceiling: 1300
Heat Index: 16°   Visibility: 2.5mi
Dew Point: 12°   Wind: 10mph
Humidity: 86%   Direction: 150°SSE
Pressure: 30.13"   Gusts: NA
Location:  46.38°N, 101.94°W
Report Text: KD57 180055Z AUTO 15009KT 2 1/2SM -SN FEW003 SCT010 BKN013 M09/M11 A3013 RMK AO2 TSNO
Loading
Personal Weather Stations






























Interactive Weather Map New forecast layout! Learn more

10-Day Weather Forecast

Advertisements
Track Severe Weather on mobile